createdAt,value
2017-07-08T00:00:00.174Z,95.84
2017-07-08T00:00:40.756Z,95.94
2017-07-08T00:01:21.348Z,95.75
2017-07-08T00:02:01.923Z,96.13
2017-07-08T00:02:42.495Z,96.13
2017-07-08T00:03:23.087Z,96.03
2017-07-08T00:04:03.663Z,95.65
2017-07-08T00:04:44.257Z,95.84
2017-07-08T00:05:24.828Z,95.94
2017-07-08T00:06:05.411Z,95.84
2017-07-08T00:06:45.986Z,95.94
2017-07-08T00:07:26.580Z,95.84
2017-07-08T00:08:07.154Z,95.65
2017-07-08T00:08:47.772Z,95.65
2017-07-08T00:09:28.364Z,96.03
2017-07-08T00:10:08.934Z,96.03
2017-07-08T00:10:49.491Z,96.03
2017-07-08T00:11:30.079Z,95.94
2017-07-08T00:12:10.636Z,95.84
2017-07-08T00:12:51.192Z,95.75
2017-07-08T00:13:31.759Z,95.65
2017-07-08T00:14:12.349Z,95.84
2017-07-08T00:14:52.932Z,95.84
2017-07-08T00:15:33.580Z,95.84
2017-07-08T00:16:14.144Z,96.61
2017-07-08T00:16:54.724Z,96.61
2017-07-08T00:17:35.293Z,96.22
2017-07-08T00:18:15.890Z,95.94
2017-07-08T00:18:56.447Z,96.13
2017-07-08T00:19:37.034Z,95.94
2017-07-08T00:20:17.607Z,95.55
2017-07-08T00:20:58.174Z,96.51
2017-07-08T00:21:38.754Z,96.13
2017-07-08T00:22:19.340Z,96.13
2017-07-08T00:22:59.917Z,95.84
2017-07-08T00:23:40.523Z,96.03
2017-07-08T00:24:21.126Z,96.99
2017-07-08T00:25:01.689Z,96.51
2017-07-08T00:25:42.264Z,96.51
2017-07-08T00:26:22.844Z,96.61
2017-07-08T00:27:03.425Z,96.22
2017-07-08T00:27:44.016Z,96.22
2017-07-08T00:28:24.581Z,96.42
2017-07-08T00:29:05.143Z,96.13
2017-07-08T00:29:45.718Z,96.32
2017-07-08T00:30:26.302Z,96.61
2017-07-08T00:31:06.910Z,96.42
2017-07-08T00:31:47.483Z,96.32
2017-07-08T00:32:28.052Z,96.61
2017-07-08T00:33:08.627Z,96.51
2017-07-08T00:33:49.176Z,96.7
2017-07-08T00:34:29.781Z,96.7
2017-07-08T00:35:10.368Z,96.42
2017-07-08T00:35:50.944Z,96.9
2017-07-08T00:36:31.550Z,96.99
2017-07-08T00:37:12.165Z,96.32
2017-07-08T00:37:52.737Z,96.9
2017-07-08T00:38:33.329Z,96.7
2017-07-08T00:39:13.899Z,96.9
2017-07-08T00:39:54.458Z,96.9
2017-07-08T00:40:35.036Z,96.32
2017-07-08T00:41:15.634Z,96.13
2017-07-08T00:41:56.199Z,96.03
2017-07-08T00:42:36.763Z,96.32
2017-07-08T00:43:17.335Z,95.84
2017-07-08T00:43:57.896Z,96.13
2017-07-08T00:44:38.465Z,96.03
2017-07-08T00:45:19.029Z,96.32
2017-07-08T00:45:59.693Z,96.22
2017-07-08T00:46:40.272Z,96.13
2017-07-08T00:47:20.870Z,95.65
2017-07-08T00:48:01.737Z,96.03
2017-07-08T00:48:42.303Z,96.51
2017-07-08T00:49:22.947Z,96.32
2017-07-08T00:50:03.530Z,96.22
2017-07-08T00:50:44.610Z,96.42
2017-07-08T00:51:25.293Z,96.03
2017-07-08T00:52:05.921Z,96.61
2017-07-08T00:52:46.529Z,95.36
2017-07-08T00:53:27.150Z,96.13
2017-07-08T00:54:07.900Z,95.94
2017-07-08T00:54:48.484Z,96.13
2017-07-08T00:55:29.082Z,95.94
2017-07-08T00:56:09.680Z,95.94
2017-07-08T00:56:50.294Z,96.03
2017-07-08T00:57:30.894Z,96.03
2017-07-08T00:58:11.462Z,96.13
2017-07-08T00:58:52.041Z,95.84
2017-07-08T00:59:32.672Z,96.13
2017-07-08T01:00:13.406Z,96.13
2017-07-08T01:00:54.637Z,95.94
2017-07-08T01:01:35.217Z,95.84
2017-07-08T01:02:15.832Z,95.84
2017-07-08T01:02:56.401Z,95.65
2017-07-08T01:03:37.138Z,95.65
2017-07-08T01:04:17.730Z,96.13
2017-07-08T01:04:58.391Z,96.13
2017-07-08T01:05:39.060Z,95.75
2017-07-08T01:06:19.661Z,96.22
2017-07-08T01:07:00.248Z,95.75
2017-07-08T01:07:40.966Z,95.84
2017-07-08T01:08:21.512Z,95.84
2017-07-08T01:09:02.117Z,95.84
2017-07-08T01:09:42.714Z,95.84
2017-07-08T01:10:23.335Z,95.94
2017-07-08T01:11:03.923Z,95.84
2017-07-08T01:11:44.544Z,96.03
2017-07-08T01:12:25.235Z,96.42
2017-07-08T01:13:05.878Z,96.42
2017-07-08T01:13:46.500Z,96.61
2017-07-08T01:14:27.226Z,96.51
2017-07-08T01:15:07.841Z,96.51
2017-07-08T01:15:48.511Z,95.94
2017-07-08T01:16:29.159Z,96.13
2017-07-08T01:17:09.727Z,96.22
2017-07-08T01:17:50.318Z,96.17
2017-07-08T01:18:30.901Z,96.42
2017-07-08T01:19:11.465Z,96.13
2017-07-08T01:19:52.063Z,96.37
2017-07-08T01:20:32.641Z,96.42
2017-07-08T01:21:13.216Z,95.65
2017-07-08T01:21:53.844Z,95.65
2017-07-08T01:22:34.409Z,95.94
2017-07-08T01:23:14.992Z,95.89
2017-07-08T01:23:55.636Z,95.75
2017-07-08T01:24:36.208Z,95.26
2017-07-08T01:25:16.770Z,95.65
2017-07-08T01:25:57.349Z,95.75
2017-07-08T01:26:37.939Z,95.84
2017-07-08T01:27:18.522Z,95.17
2017-07-08T01:27:59.112Z,95.12
2017-07-08T01:28:39.684Z,95.17
2017-07-08T01:29:20.277Z,95.12
2017-07-08T01:30:00.850Z,95.17
2017-07-08T01:30:41.416Z,95.26
2017-07-08T01:31:22.008Z,95.5
2017-07-08T01:32:02.581Z,95.55
2017-07-08T01:32:43.158Z,95.45
2017-07-08T01:33:23.755Z,95.4
2017-07-08T01:34:04.323Z,95.21
2017-07-08T01:34:44.899Z,95.21
2017-07-08T01:35:25.479Z,95.31
2017-07-08T01:36:06.062Z,95.6
2017-07-08T01:36:46.653Z,95.21
2017-07-08T01:37:27.237Z,95.31
2017-07-08T01:38:07.813Z,95.21
2017-07-08T01:38:48.386Z,95.31
2017-07-08T01:39:28.963Z,95.4
2017-07-08T01:40:09.542Z,95.31
2017-07-08T01:40:50.121Z,95.03
2017-07-08T01:41:30.706Z,94.83
2017-07-08T01:42:11.332Z,94.93
2017-07-08T01:42:51.903Z,94.93
2017-07-08T01:43:32.486Z,94.93
2017-07-08T01:44:13.060Z,94.93
2017-07-08T01:44:53.673Z,94.54
2017-07-08T01:45:34.264Z,95.31
2017-07-08T01:46:14.874Z,94.93
2017-07-08T01:46:55.461Z,94.54
2017-07-08T01:47:36.051Z,94.93
2017-07-08T01:48:16.643Z,95.12
2017-07-08T01:48:57.223Z,95.31
2017-07-08T01:49:37.792Z,95.31
2017-07-08T01:50:18.411Z,95.5
2017-07-08T01:50:58.990Z,95.6
2017-07-08T01:51:39.587Z,95.31
2017-07-08T01:52:20.203Z,95.6
2017-07-08T01:53:00.788Z,95.12
2017-07-08T01:53:41.395Z,95.21
2017-07-08T01:54:21.988Z,95.6
2017-07-08T01:55:02.579Z,95.89
2017-07-08T01:55:43.159Z,95.5
2017-07-08T01:56:23.749Z,95.5
2017-07-08T01:57:04.352Z,95.79
2017-07-08T01:57:44.916Z,95.6
2017-07-08T01:58:25.508Z,95.6
2017-07-08T01:59:06.087Z,95.79
2017-07-08T01:59:46.659Z,95.79
2017-07-08T02:00:27.239Z,95.6
2017-07-08T02:01:07.914Z,95.12
2017-07-08T02:01:48.571Z,95.31
2017-07-08T02:02:29.181Z,96.08
2017-07-08T02:03:09.760Z,95.31
2017-07-08T02:03:50.318Z,96.08
2017-07-08T02:04:30.888Z,95.4
2017-07-08T02:05:11.470Z,95.12
2017-07-08T02:05:52.058Z,95.79
2017-07-08T02:06:32.651Z,95.6
2017-07-08T02:07:13.213Z,95.21
2017-07-08T02:07:53.819Z,95.7
2017-07-08T02:08:34.408Z,95.6
2017-07-08T02:09:14.991Z,95.31
2017-07-08T02:09:55.582Z,95.21
2017-07-08T02:10:36.156Z,95.21
2017-07-08T02:11:16.740Z,95.5
2017-07-08T02:11:57.332Z,95.31
2017-07-08T02:12:37.915Z,95.6
2017-07-08T02:13:18.494Z,95.31
2017-07-08T02:13:59.079Z,95.21
2017-07-08T02:14:39.670Z,95.31
2017-07-08T02:15:20.229Z,95.4
2017-07-08T02:16:00.823Z,95.31
2017-07-08T02:16:41.396Z,95.4
2017-07-08T02:17:21.979Z,95.31
2017-07-08T02:18:02.577Z,95.12
2017-07-08T02:18:43.187Z,95.55
2017-07-08T02:19:23.801Z,95.6
2017-07-08T02:20:04.379Z,95.31
2017-07-08T02:20:44.993Z,95.21
2017-07-08T02:21:25.572Z,95.26
2017-07-08T02:22:06.208Z,95.4
2017-07-08T02:22:46.789Z,95.36
2017-07-08T02:23:27.369Z,95.31
2017-07-08T02:24:07.945Z,95.12
2017-07-08T02:24:48.568Z,94.93
2017-07-08T02:25:29.111Z,95.4
2017-07-08T02:26:09.712Z,94.88
2017-07-08T02:26:50.297Z,94.93
2017-07-08T02:27:30.907Z,94.83
2017-07-08T02:28:11.502Z,94.78
2017-07-08T02:28:52.156Z,94.69
2017-07-08T02:29:32.729Z,94.73
2017-07-08T02:30:13.319Z,94.69
2017-07-08T02:30:53.903Z,95.31
2017-07-08T02:31:34.490Z,94.93
2017-07-08T02:32:15.057Z,95.07
2017-07-08T02:32:55.643Z,94.4
2017-07-08T02:33:36.220Z,94.4
2017-07-08T02:34:16.824Z,94.45
2017-07-08T02:34:57.486Z,95.12
2017-07-08T02:35:38.012Z,95.07
2017-07-08T02:36:18.581Z,94.73
2017-07-08T02:36:59.155Z,94.98
2017-07-08T02:37:39.740Z,94.78
2017-07-08T02:38:20.296Z,94.98
2017-07-08T02:39:00.886Z,94.83
2017-07-08T02:39:41.459Z,94.98
2017-07-08T02:40:22.050Z,94.78
2017-07-08T02:41:02.677Z,94.69
2017-07-08T02:41:43.269Z,95.07
2017-07-08T02:42:23.831Z,95.26
2017-07-08T02:43:04.403Z,95.26
2017-07-08T02:43:44.981Z,95.26
2017-07-08T02:44:25.565Z,95.07
2017-07-08T02:45:06.133Z,95.07
2017-07-08T02:45:46.728Z,94.64
2017-07-08T02:46:27.319Z,94.4
2017-07-08T02:47:07.897Z,94.69
2017-07-08T02:47:48.468Z,94.59
2017-07-08T02:48:29.067Z,94.69
2017-07-08T02:49:09.655Z,94.49
2017-07-08T02:49:50.287Z,94.21
2017-07-08T02:50:30.883Z,94.4
2017-07-08T02:51:11.477Z,94.59
2017-07-08T02:51:52.089Z,94.69
2017-07-08T02:52:32.677Z,94.88
2017-07-08T02:53:13.260Z,94.88
2017-07-08T02:53:53.851Z,94.88
2017-07-08T02:54:34.437Z,94.78
2017-07-08T02:55:15.012Z,95.12
2017-07-08T02:55:55.638Z,95.07
2017-07-08T02:56:36.225Z,94.88
2017-07-08T02:57:16.845Z,95.07
2017-07-08T02:57:57.431Z,94.98
2017-07-08T02:58:38.030Z,95.17
2017-07-08T02:59:18.643Z,94.78
2017-07-08T02:59:59.246Z,94.88
2017-07-08T03:00:39.829Z,94.98
2017-07-08T03:01:20.398Z,94.78
2017-07-08T03:02:00.969Z,94.78
2017-07-08T03:02:41.540Z,94.78
2017-07-08T03:03:22.129Z,95.07
2017-07-08T03:04:02.757Z,94.88
2017-07-08T03:04:43.350Z,94.78
2017-07-08T03:05:23.951Z,94.98
2017-07-08T03:06:04.568Z,94.98
2017-07-08T03:06:45.170Z,94.78
2017-07-08T03:07:25.754Z,94.98
2017-07-08T03:08:06.370Z,94.98
2017-07-08T03:08:46.953Z,94.98
2017-07-08T03:09:27.570Z,94.78
2017-07-08T03:10:08.222Z,94.98
2017-07-08T03:10:48.846Z,94.69
2017-07-08T03:11:29.423Z,94.69
2017-07-08T03:12:10.017Z,94.88
2017-07-08T03:12:50.635Z,94.78
2017-07-08T03:13:31.200Z,94.49
2017-07-08T03:14:11.763Z,94.69
2017-07-08T03:14:52.392Z,95.55
2017-07-08T03:15:32.999Z,95.26
2017-07-08T03:16:13.584Z,95.26
2017-07-08T03:16:54.211Z,95.65
2017-07-08T03:17:34.814Z,95.36
2017-07-08T03:18:15.407Z,95.07
2017-07-08T03:18:55.985Z,95.45
2017-07-08T03:19:36.556Z,95.36
2017-07-08T03:20:17.145Z,95.75
2017-07-08T03:20:57.755Z,95.65
2017-07-08T03:21:38.337Z,95.45
2017-07-08T03:22:19.006Z,95.65
2017-07-08T03:22:59.583Z,95.75
2017-07-08T03:23:40.192Z,95.26
2017-07-08T03:24:20.815Z,95.75
2017-07-08T03:25:01.416Z,95.84
2017-07-08T03:25:42.016Z,95.75
2017-07-08T03:26:22.661Z,95.07
2017-07-08T03:27:03.313Z,95.26
2017-07-08T03:27:43.853Z,95.26
2017-07-08T03:28:24.413Z,95.36
2017-07-08T03:29:05.032Z,95.26
2017-07-08T03:29:45.621Z,95.65
2017-07-08T03:30:26.215Z,95.75
2017-07-08T03:31:06.826Z,95.55
2017-07-08T03:31:47.418Z,95.65
2017-07-08T03:32:27.990Z,95.45
2017-07-08T03:33:08.586Z,95.84
2017-07-08T03:33:49.144Z,95.94
2017-07-08T03:34:29.790Z,95.65
2017-07-08T03:35:10.400Z,95.36
2017-07-08T03:35:50.979Z,95.45
2017-07-08T03:36:31.548Z,95.84
2017-07-08T03:37:12.118Z,95.94
2017-07-08T03:37:52.708Z,95.94
2017-07-08T03:38:33.298Z,95.75
2017-07-08T03:39:13.876Z,95.94
2017-07-08T03:39:54.454Z,95.94
2017-07-08T03:40:35.056Z,95.94
2017-07-08T03:41:15.651Z,96.51
2017-07-08T03:41:56.231Z,95.75
2017-07-08T03:42:36.823Z,96.61
2017-07-08T03:43:17.431Z,96.42
2017-07-08T03:43:58.014Z,96.32
2017-07-08T03:44:38.595Z,96.03
2017-07-08T03:45:19.197Z,96.61
2017-07-08T03:45:59.780Z,96.51
2017-07-08T03:46:40.362Z,96.13
2017-07-08T03:47:20.948Z,96.22
2017-07-08T03:48:01.547Z,96.03
2017-07-08T03:48:42.147Z,95.94
2017-07-08T03:49:22.718Z,95.84
2017-07-08T03:50:03.326Z,96.03
2017-07-08T03:50:43.902Z,95.94
2017-07-08T03:51:24.475Z,95.94
2017-07-08T03:52:05.053Z,96.03
2017-07-08T03:52:45.683Z,96.03
2017-07-08T03:53:26.256Z,96.61
2017-07-08T03:54:06.824Z,95.94
2017-07-08T03:54:47.420Z,96.03
2017-07-08T03:55:27.995Z,95.65
2017-07-08T03:56:08.571Z,95.84
2017-07-08T03:56:49.175Z,95.55
2017-07-08T03:57:29.816Z,95.84
2017-07-08T03:58:10.411Z,95.84
2017-07-08T03:58:50.982Z,95.84
2017-07-08T03:59:31.582Z,96.42
2017-07-08T04:00:12.162Z,96.22
2017-07-08T04:00:52.722Z,96.42
2017-07-08T04:01:33.288Z,96.03
2017-07-08T04:02:13.861Z,96.13
2017-07-08T04:02:54.438Z,95.94
2017-07-08T04:03:35.016Z,95.84
2017-07-08T04:04:15.599Z,95.94
2017-07-08T04:04:56.190Z,96.03
2017-07-08T04:05:36.770Z,96.13
2017-07-08T04:06:17.341Z,95.89
2017-07-08T04:06:57.919Z,95.94
2017-07-08T04:07:38.530Z,96.03
2017-07-08T04:08:19.111Z,95.84
2017-07-08T04:08:59.690Z,95.94
2017-07-08T04:09:40.247Z,95.94
2017-07-08T04:10:20.842Z,96.03
2017-07-08T04:11:01.420Z,96.03
2017-07-08T04:11:42.291Z,96.03
2017-07-08T04:12:22.892Z,96.22
2017-07-08T04:13:03.482Z,96.13
2017-07-08T04:13:44.068Z,96.13
2017-07-08T04:14:24.656Z,95.94
2017-07-08T04:15:05.233Z,96.22
2017-07-08T04:15:45.793Z,96.13
2017-07-08T04:16:26.379Z,96.7
2017-07-08T04:17:06.971Z,96.51
2017-07-08T04:17:47.540Z,96.56
2017-07-08T04:18:28.138Z,96.75
2017-07-08T04:19:08.707Z,96.47
2017-07-08T04:19:49.289Z,96.51
2017-07-08T04:20:29.880Z,96.42
2017-07-08T04:21:10.465Z,96.56
2017-07-08T04:21:51.056Z,96.47
2017-07-08T04:22:31.628Z,96.56
2017-07-08T04:23:12.212Z,96.56
2017-07-08T04:23:52.787Z,96.17
2017-07-08T04:24:33.403Z,96.27
2017-07-08T04:25:13.988Z,96.37
2017-07-08T04:25:54.556Z,96.56
2017-07-08T04:26:35.139Z,96.47
2017-07-08T04:27:15.720Z,96.75
2017-07-08T04:27:56.305Z,96.66
2017-07-08T04:28:37.132Z,96.66
2017-07-08T04:29:17.765Z,96.85
2017-07-08T04:29:58.820Z,96.94
2017-07-08T04:30:39.389Z,96.47
2017-07-08T04:31:19.979Z,96.08
2017-07-08T04:32:00.549Z,95.79
2017-07-08T04:32:41.132Z,95.98
2017-07-08T04:33:21.729Z,95.89
2017-07-08T04:34:02.313Z,96.08
2017-07-08T04:34:42.922Z,96.37
2017-07-08T04:35:23.488Z,95.89
2017-07-08T04:36:04.067Z,96.08
2017-07-08T04:36:44.645Z,95.89
2017-07-08T04:37:25.221Z,96.85
2017-07-08T04:38:05.803Z,96.56
2017-07-08T04:38:46.373Z,96.66
2017-07-08T04:39:26.983Z,96.75
2017-07-08T04:40:07.577Z,96.66
2017-07-08T04:40:48.150Z,96.75
2017-07-08T04:41:28.719Z,96.37
2017-07-08T04:42:09.280Z,96.37
2017-07-08T04:42:49.837Z,96.47
2017-07-08T04:43:30.416Z,96.17
2017-07-08T04:44:11.018Z,96.8
2017-07-08T04:44:51.580Z,96.27
2017-07-08T04:45:32.144Z,96.56
2017-07-08T04:46:12.732Z,96.56
2017-07-08T04:46:53.318Z,96.47
2017-07-08T04:47:33.890Z,96.94
2017-07-08T04:48:14.467Z,96.9
2017-07-08T04:48:55.037Z,96.7
2017-07-08T04:49:35.614Z,96.22
2017-07-08T04:50:16.186Z,96.51
2017-07-08T04:50:56.765Z,96.32
2017-07-08T04:51:37.353Z,96.61
2017-07-08T04:52:17.917Z,96.32
2017-07-08T04:52:58.495Z,96.42
2017-07-08T04:53:39.071Z,96.32
2017-07-08T04:54:19.652Z,96.7
2017-07-08T04:55:00.228Z,96.9
2017-07-08T04:55:40.801Z,96.99
2017-07-08T04:56:21.372Z,96.61
2017-07-08T04:57:01.952Z,96.9
2017-07-08T04:57:42.523Z,96.32
2017-07-08T04:58:23.093Z,96.8
2017-07-08T04:59:03.808Z,96.61
2017-07-08T04:59:44.392Z,96.51
2017-07-08T05:00:24.958Z,96.61
2017-07-08T05:01:05.533Z,96.42
2017-07-08T05:01:46.143Z,96.13
2017-07-08T05:02:26.768Z,95.94
2017-07-08T05:03:07.280Z,95.84
2017-07-08T05:03:47.854Z,96.22
2017-07-08T05:04:28.492Z,96.03
2017-07-08T05:05:09.060Z,95.94
2017-07-08T05:05:49.657Z,96.32
2017-07-08T05:06:30.211Z,96.13
2017-07-08T05:07:10.790Z,96.22
2017-07-08T05:07:51.371Z,96.13
2017-07-08T05:08:31.943Z,96.13
2017-07-08T05:09:12.531Z,96.03
2017-07-08T05:09:53.109Z,96.13
2017-07-08T05:10:33.711Z,96.32
2017-07-08T05:11:14.338Z,96.22
2017-07-08T05:11:54.936Z,96.51
2017-07-08T05:12:35.507Z,96.32
2017-07-08T05:13:16.084Z,96.13
2017-07-08T05:13:56.685Z,96.13
2017-07-08T05:14:37.261Z,96.22
2017-07-08T05:15:17.890Z,96.27
2017-07-08T05:15:58.460Z,95.84
2017-07-08T05:16:39.085Z,96.37
2017-07-08T05:17:19.836Z,96.27
2017-07-08T05:18:00.403Z,96.27
2017-07-08T05:18:40.988Z,95.98
2017-07-08T05:19:21.554Z,95.98
2017-07-08T05:20:02.183Z,96.75
2017-07-08T05:20:42.804Z,95.89
2017-07-08T05:21:23.374Z,95.98
2017-07-08T05:22:03.956Z,96.17
2017-07-08T05:22:44.579Z,95.6
2017-07-08T05:23:25.158Z,96.17
2017-07-08T05:24:05.763Z,95.89
2017-07-08T05:24:46.366Z,96.47
2017-07-08T05:25:26.977Z,95.7
2017-07-08T05:26:07.535Z,95.89
2017-07-08T05:26:48.106Z,95.7
2017-07-08T05:27:28.720Z,95.89
2017-07-08T05:28:09.288Z,95.79
2017-07-08T05:28:49.875Z,96.08
2017-07-08T05:29:30.444Z,95.98
2017-07-08T05:30:11.091Z,95.98
2017-07-08T05:30:51.681Z,96.17
2017-07-08T05:31:32.337Z,95.79
2017-07-08T05:32:12.914Z,96.27
2017-07-08T05:32:53.515Z,96.17
2017-07-08T05:33:34.117Z,95.31
2017-07-08T05:34:14.718Z,95.65
2017-07-08T05:34:55.288Z,95.6
2017-07-08T05:35:35.875Z,95.98
2017-07-08T05:36:16.464Z,96.12
2017-07-08T05:36:57.026Z,96.12
2017-07-08T05:37:37.617Z,96.03
2017-07-08T05:38:18.243Z,96.32
2017-07-08T05:38:58.810Z,95.74
2017-07-08T05:39:39.399Z,95.55
2017-07-08T05:40:19.975Z,95.65
2017-07-08T05:41:00.555Z,95.12
2017-07-08T05:41:41.151Z,95.02
2017-07-08T05:42:21.833Z,94.92
2017-07-08T05:43:02.395Z,94.64
2017-07-08T05:43:42.966Z,94.15
2017-07-08T05:44:23.553Z,93.19
2017-07-08T05:45:04.165Z,92.61
2017-07-08T05:45:44.722Z,92.71
2017-07-08T05:46:25.298Z,92.66
2017-07-08T05:47:05.866Z,91.79
2017-07-08T05:47:46.470Z,91.21
2017-07-08T05:48:27.049Z,91.02
2017-07-08T05:49:07.682Z,90.06
2017-07-08T05:49:48.257Z,90.88
2017-07-08T05:50:28.831Z,90.34
2017-07-08T05:51:09.409Z,89.67
2017-07-08T05:51:50.008Z,88.9
2017-07-08T05:52:30.597Z,89.29
2017-07-08T05:53:11.220Z,88.61
2017-07-08T05:53:51.761Z,88.23
2017-07-08T05:54:32.339Z,87.74
2017-07-08T05:55:12.913Z,87.55
2017-07-08T05:55:53.493Z,88.42
2017-07-08T05:56:34.119Z,87.94
2017-07-08T05:57:14.697Z,88.13
2017-07-08T05:58:16.297Z,88.23
2017-07-08T05:59:10.227Z,88.28
2017-07-08T05:59:50.861Z,88.47
2017-07-08T06:00:31.485Z,87.99
2017-07-08T06:01:12.063Z,88.57
2017-07-08T06:01:52.638Z,88.67
2017-07-08T06:02:33.233Z,88.67
2017-07-08T06:03:13.791Z,88.57
2017-07-08T06:03:54.389Z,89.15
2017-07-08T06:04:34.972Z,89.05
2017-07-08T06:05:15.548Z,89.15
2017-07-08T06:05:56.119Z,88.95
2017-07-08T06:06:36.731Z,88.95
2017-07-08T06:07:17.292Z,89.34
2017-07-08T06:07:57.915Z,88.95
2017-07-08T06:08:38.490Z,89.34
2017-07-08T06:09:19.053Z,89.43
2017-07-08T06:09:59.658Z,89.43
2017-07-08T06:10:40.232Z,89.53
2017-07-08T06:11:20.813Z,89.53
2017-07-08T06:12:01.389Z,89.24
2017-07-08T06:12:41.946Z,89.24
2017-07-08T06:13:22.513Z,89.24
2017-07-08T06:14:03.077Z,88.95
2017-07-08T06:14:43.667Z,88.76
2017-07-08T06:15:24.258Z,88.95
2017-07-08T06:16:05.374Z,89.24
2017-07-08T06:16:45.945Z,88.85
2017-07-08T06:17:26.520Z,88.76
2017-07-08T06:18:07.091Z,89.15
2017-07-08T06:18:47.670Z,89.15
2017-07-08T06:19:28.240Z,88.95
2017-07-08T06:20:08.895Z,88.81
2017-07-08T06:20:49.430Z,88.95
2017-07-08T06:21:30.742Z,88.85
2017-07-08T06:22:11.244Z,88.67
2017-07-08T06:22:51.831Z,88.76
2017-07-08T06:23:32.428Z,88.85
2017-07-08T06:24:13.149Z,89.05
2017-07-08T06:24:53.798Z,88.85
2017-07-08T06:25:34.381Z,88.38
2017-07-08T06:26:14.981Z,88.38
2017-07-08T06:26:55.556Z,89.15
2017-07-08T06:27:36.141Z,88.57
2017-07-08T06:28:16.707Z,88.38
2017-07-08T06:28:57.279Z,88.67
2017-07-08T06:29:37.889Z,88.57
2017-07-08T06:30:18.454Z,89.05
2017-07-08T06:30:59.047Z,89.05
2017-07-08T06:31:39.642Z,88.38
2017-07-08T06:32:20.224Z,88.47
2017-07-08T06:33:00.812Z,88.76
2017-07-08T06:33:41.395Z,88.85
2017-07-08T06:34:21.976Z,88.67
2017-07-08T06:35:02.659Z,88.38
2017-07-08T06:35:43.248Z,88.38
2017-07-08T06:36:23.814Z,89.15
2017-07-08T06:37:04.404Z,88.85
2017-07-08T06:37:44.995Z,89.05
2017-07-08T06:38:25.614Z,89.15
2017-07-08T06:39:06.232Z,88.38
2017-07-08T06:39:46.801Z,88.57
2017-07-08T06:40:27.398Z,88.57
2017-07-08T06:41:08.016Z,88.47
2017-07-08T06:41:48.597Z,88.09
2017-07-08T06:42:29.234Z,87.9
2017-07-08T06:43:09.812Z,88.57
2017-07-08T06:43:50.387Z,88.76
2017-07-08T06:44:30.967Z,88.57
2017-07-08T06:45:11.558Z,88.76
2017-07-08T06:45:52.154Z,88.57
2017-07-08T06:46:32.743Z,88.09
2017-07-08T06:47:13.330Z,88.09
2017-07-08T06:47:53.883Z,88.28
2017-07-08T06:48:34.469Z,88.09
2017-07-08T06:49:15.070Z,88.32
2017-07-08T06:49:55.652Z,88.09
2017-07-08T06:50:36.218Z,88.32
2017-07-08T06:51:16.809Z,88.42
2017-07-08T06:51:57.385Z,88.04
2017-07-08T06:52:37.954Z,88.04
2017-07-08T06:53:18.536Z,87.94
2017-07-08T06:53:59.132Z,87.94
2017-07-08T06:54:39.723Z,87.6
2017-07-08T06:55:20.289Z,87.9
2017-07-08T06:56:00.862Z,87.99
2017-07-08T06:56:41.426Z,87.94
2017-07-08T06:57:22.011Z,87.9
2017-07-08T06:58:02.598Z,87.8
2017-07-08T06:58:43.185Z,88.04
2017-07-08T06:59:23.754Z,87.99
2017-07-08T07:00:04.332Z,88.18
2017-07-08T07:00:44.946Z,87.9
2017-07-08T07:01:25.535Z,88.09
2017-07-08T07:02:06.208Z,88.09
2017-07-08T07:02:46.808Z,88.18
2017-07-08T07:03:27.476Z,87.9
2017-07-08T07:04:08.057Z,87.9
2017-07-08T07:04:48.669Z,88.18
2017-07-08T07:05:29.244Z,88.38
2017-07-08T07:06:09.920Z,88.18
2017-07-08T07:06:50.523Z,87.9
2017-07-08T07:07:31.109Z,88.38
2017-07-08T07:08:11.720Z,88.28
2017-07-08T07:08:52.305Z,88.18
2017-07-08T07:09:32.892Z,87.8
2017-07-08T07:10:13.487Z,88.28
2017-07-08T07:10:54.068Z,88.09
2017-07-08T07:11:34.634Z,87.7
2017-07-08T07:12:15.224Z,88.38
2017-07-08T07:12:55.801Z,87.9
2017-07-08T07:13:36.407Z,87.9
2017-07-08T07:14:17.054Z,88.38
2017-07-08T07:14:57.623Z,88.47
2017-07-08T07:15:38.203Z,88.38
2017-07-08T07:16:18.782Z,88.09
2017-07-08T07:16:59.380Z,88.38
2017-07-08T07:17:40.096Z,88.18
2017-07-08T07:18:20.694Z,88.18
2017-07-08T07:19:01.252Z,88.47
2017-07-08T07:19:41.857Z,88.18
2017-07-08T07:20:22.441Z,88.18
2017-07-08T07:21:03.023Z,87.9
2017-07-08T07:21:43.728Z,87.99
2017-07-08T07:22:24.315Z,87.6
2017-07-08T07:23:04.900Z,87.46
2017-07-08T07:23:45.614Z,87.56
2017-07-08T07:24:26.254Z,86.83
2017-07-08T07:25:07.097Z,87.41
2017-07-08T07:25:47.711Z,86.99
2017-07-08T07:26:28.280Z,86.89
2017-07-08T07:27:08.866Z,86.99
2017-07-08T07:27:49.438Z,87.18
2017-07-08T07:28:29.997Z,87.46
2017-07-08T07:29:10.639Z,87.46
2017-07-08T07:29:51.208Z,87.46
2017-07-08T07:30:31.827Z,87.85
2017-07-08T07:31:13.668Z,87.66
2017-07-08T07:31:54.247Z,88.04
2017-07-08T07:32:34.833Z,88.33
2017-07-08T07:33:15.421Z,88.53
2017-07-08T07:33:56.015Z,88.71
2017-07-08T07:34:36.640Z,88.91
2017-07-08T07:35:17.387Z,88.81
2017-07-08T07:35:58.027Z,88.53
2017-07-08T07:36:38.786Z,88.14
2017-07-08T07:37:19.358Z,88.33
2017-07-08T07:37:59.940Z,88.14
2017-07-08T07:38:40.514Z,88.14
2017-07-08T07:39:21.084Z,88.43
2017-07-08T07:40:01.678Z,88.62
2017-07-08T07:40:42.256Z,88.53
2017-07-08T07:41:22.838Z,88.53
2017-07-08T07:42:03.412Z,87.95
2017-07-08T07:42:43.995Z,88.04
2017-07-08T07:43:24.612Z,88.14
2017-07-08T07:44:05.186Z,88.04
2017-07-08T07:44:46.062Z,88.14
2017-07-08T07:45:26.801Z,88.04
2017-07-08T07:46:07.732Z,88.24
2017-07-08T07:46:48.543Z,88.14
2017-07-08T07:47:29.131Z,87.85
2017-07-08T07:48:09.740Z,88.04
2017-07-08T07:48:50.305Z,87.56
2017-07-08T07:49:30.901Z,87.46
2017-07-08T07:50:11.462Z,87.37
2017-07-08T07:50:52.133Z,87.56
2017-07-08T07:51:32.701Z,87.46
2017-07-08T07:52:13.279Z,87.46
2017-07-08T07:52:53.862Z,87.27
2017-07-08T07:53:34.443Z,87.85
2017-07-08T07:54:15.043Z,88.43
2017-07-08T07:54:55.638Z,87.76
2017-07-08T07:55:36.242Z,88.04
2017-07-08T07:56:16.842Z,88.43
2017-07-08T07:56:57.455Z,88.33
2017-07-08T07:57:38.055Z,88.24
2017-07-08T07:58:18.672Z,88.33
2017-07-08T07:58:59.258Z,87.56
2017-07-08T07:59:39.855Z,87.37
2017-07-08T08:00:20.456Z,87.18
2017-07-08T08:01:01.043Z,87.18
2017-07-08T08:01:41.666Z,87.6
2017-07-08T08:02:22.251Z,87.6
2017-07-08T08:03:02.842Z,86.93
2017-07-08T08:03:43.430Z,87.12
2017-07-08T08:04:24.026Z,87.03
2017-07-08T08:05:04.618Z,86.93
2017-07-08T08:05:45.218Z,87.32
2017-07-08T08:06:25.818Z,87.12
2017-07-08T08:07:06.414Z,86.93
2017-07-08T08:07:46.998Z,87.03
2017-07-08T08:08:27.580Z,86.93
2017-07-08T08:09:08.171Z,86.45
2017-07-08T08:09:48.780Z,86.83
2017-07-08T08:10:29.403Z,86.55
2017-07-08T08:11:10.002Z,86.35
2017-07-08T08:11:50.604Z,86.83
2017-07-08T08:12:31.268Z,85.97
2017-07-08T08:13:11.880Z,86.16
2017-07-08T08:13:52.462Z,86.26
2017-07-08T08:14:33.054Z,86.26
2017-07-08T08:15:13.630Z,86.16
2017-07-08T08:15:54.266Z,85.97
2017-07-08T08:16:34.860Z,85.97
2017-07-08T08:17:15.453Z,84.53
2017-07-08T08:17:56.044Z,83.66
2017-07-08T08:18:36.628Z,82.6
2017-07-08T08:19:17.225Z,82.6
2017-07-08T08:19:57.820Z,83.42
2017-07-08T08:20:38.411Z,83.28
2017-07-08T08:21:19.061Z,83.85
2017-07-08T08:21:59.661Z,83.42
2017-07-08T08:22:40.296Z,84.23
2017-07-08T08:23:20.895Z,83.72
2017-07-08T08:24:01.497Z,84.19
2017-07-08T08:24:42.065Z,83.81
2017-07-08T08:25:22.674Z,83.75
2017-07-08T08:26:03.288Z,83.23
2017-07-08T08:26:43.878Z,83.81
2017-07-08T08:27:24.467Z,83.72
2017-07-08T08:28:05.076Z,83.95
2017-07-08T08:28:45.695Z,83.47
2017-07-08T08:29:26.306Z,83.47
2017-07-08T08:30:06.877Z,83.95
2017-07-08T08:30:47.454Z,83.75
2017-07-08T08:31:28.037Z,83.18
2017-07-08T08:32:08.638Z,83.08
2017-07-08T08:32:49.232Z,83.37
2017-07-08T08:33:29.814Z,83.18
2017-07-08T08:34:10.399Z,82.98
2017-07-08T08:34:51.048Z,82.6
2017-07-08T08:35:31.587Z,82.21
2017-07-08T08:36:12.190Z,82.21
2017-07-08T08:36:52.804Z,82.02
2017-07-08T08:37:33.425Z,82.12
2017-07-08T08:38:14.005Z,81.35
2017-07-08T08:38:54.588Z,81.16
2017-07-08T08:39:35.181Z,81.93
2017-07-08T08:40:15.756Z,82.12
2017-07-08T08:40:56.352Z,82.79
2017-07-08T08:41:36.962Z,83.18
2017-07-08T08:42:17.547Z,82.6
2017-07-08T08:42:58.124Z,82.02
2017-07-08T08:43:38.703Z,82.41
2017-07-08T08:44:19.298Z,82.6